This is the latest recevied weather packets stored in our database for station/object KC7KGF. If no packets are shown the sender has not sent any weather packets the latest 10 day(s).
| Time | Temp. | Humidity | Pressure | Rain* | Wind** | Luminosity | Snow |
|---|---|---|---|---|---|---|---|
| 1777343743 | 11.67° C | 30% | 1017.2 hPa | 0 mm | - | - | - |
| 1777341927 | 13.33° C | 27% | 1017 hPa | 0 mm | - | - | - |
| 1777340139 | 13.89° C | 24% | 1016.9 hPa | 0 mm | - | - | - |
| 1777338343 | 15.56° C | 23% | 1016.8 hPa | 0 mm | - | - | - |
| 1777336532 | 16.11° C | 21% | 1016.7 hPa | 0 mm | - | - | - |
| 1777334736 | 17.22° C | 21% | 1016.6 hPa | 0 mm | - | - | - |
| 1777332938 | 17.78° C | 20% | 1016.2 hPa | 0 mm | - | - | - |
| 1777331142 | 17.78° C | 17% | 1016.2 hPa | 0 mm | - | - | - |
| 1777329340 | 18.33° C | 19% | 1016.2 hPa | 0 mm | - | - | - |
| 1777327547 | 18.33° C | 18% | 1016.2 hPa | 0 mm | - | - | - |
| 1777325748 | 18.33° C | 20% | 1016.6 hPa | 0 mm | - | - | - |
| 1777323940 | 18.33° C | 23% | 1016.8 hPa | 0 mm | - | - | - |
| 1777322141 | 17.78° C | 22% | 1017 hPa | 0 mm | - | - | - |
| 1777320336 | 17.78° C | 21% | 1017.1 hPa | 0 mm | - | - | - |
| 1777318545 | 17.22° C | 20% | 1017.3 hPa | 0 mm | - | - | - |
| 1777316733 | 16.67° C | 25% | 1017.4 hPa | 0 mm | - | - | - |
| 1777314933 | 15.56° C | 28% | 1017.7 hPa | 0 mm | - | - | - |
| 1777313130 | 15.56° C | 29% | 1017.8 hPa | 0 mm | - | - | - |
| 1777311334 | 15° C | 30% | 1017.8 hPa | 0 mm | - | - | - |
| 1777309542 | 13.89° C | 33% | 1017.7 hPa | 0 mm | - | - | - |
| 1777307742 | 12.78° C | 36% | 1017.9 hPa | 0 mm | - | - | - |
| 1777305934 | 12.22° C | 42% | 1017.8 hPa | 0 mm | - | - | - |
| 1777304138 | 11.11° C | 48% | 1017.7 hPa | 0 mm | - | - | - |
| 1777302345 | 10° C | 53% | 1017.9 hPa | 0 mm | - | - | - |
| 1777300545 | 7.78° C | 61% | 1017.9 hPa | 0 mm | - | - | - |
* Rain latest hour (hover to see other rain measurements)
** Current wind speed in m/s (hover to see current wind gust speed)